createdAt,value
2022-08-03T00:00:27.487Z,20.10
2022-08-03T00:02:54.508Z,20.10
2022-08-03T00:05:21.826Z,20.10
2022-08-03T00:07:49.608Z,20.10
2022-08-03T00:10:17.041Z,20.10
2022-08-03T00:12:44.139Z,20.00
2022-08-03T00:15:16.392Z,20.00
2022-08-03T00:17:52.756Z,20.00
2022-08-03T00:20:21.845Z,20.00
2022-08-03T00:22:49.558Z,20.00
2022-08-03T00:25:16.650Z,20.00
2022-08-03T00:27:43.678Z,19.90
2022-08-03T00:30:11.322Z,19.90
2022-08-03T00:32:38.834Z,19.80
2022-08-03T00:35:19.229Z,19.80
2022-08-03T00:37:59.454Z,19.80
2022-08-03T00:40:27.069Z,19.80
2022-08-03T00:42:55.594Z,19.70
2022-08-03T00:45:25.101Z,19.70
2022-08-03T00:47:52.678Z,19.60
2022-08-03T00:50:22.929Z,19.50
2022-08-03T00:52:52.200Z,19.50
2022-08-03T00:55:19.445Z,19.40
2022-08-03T00:57:47.387Z,19.30
2022-08-03T01:00:18.296Z,19.30
2022-08-03T01:02:45.453Z,19.30
2022-08-03T01:05:13.006Z,19.30
2022-08-03T01:07:52.918Z,19.30
2022-08-03T01:10:34.791Z,19.30
2022-08-03T01:14:01.102Z,19.20
2022-08-03T01:16:35.853Z,19.20
2022-08-03T01:19:40.780Z,19.10
2022-08-03T01:22:32.556Z,19.10
2022-08-03T01:25:33.187Z,19.10
2022-08-03T01:28:18.690Z,19.00
2022-08-03T01:30:47.273Z,19.10
2022-08-03T01:33:28.264Z,19.10
2022-08-03T01:36:04.112Z,19.00
2022-08-03T01:38:43.933Z,18.90
2022-08-03T01:41:30.493Z,18.90
2022-08-03T01:44:29.460Z,18.90
2022-08-03T01:46:50.054Z,18.90
2022-08-03T01:49:17.849Z,18.80
2022-08-03T01:52:03.498Z,18.80
2022-08-03T01:54:38.016Z,18.80
2022-08-03T01:57:05.988Z,18.70
2022-08-03T01:59:35.467Z,18.70
2022-08-03T02:02:29.016Z,18.70
2022-08-03T02:04:55.718Z,18.70
2022-08-03T02:07:25.565Z,18.70
2022-08-03T02:09:54.982Z,18.70
2022-08-03T02:12:24.474Z,18.70
2022-08-03T02:14:52.359Z,18.70
2022-08-03T02:17:39.111Z,18.70
2022-08-03T02:20:09.436Z,18.60
2022-08-03T02:22:39.271Z,18.60
2022-08-03T02:25:08.482Z,18.60
2022-08-03T02:27:40.559Z,18.60
2022-08-03T02:30:12.567Z,18.50
2022-08-03T02:32:42.613Z,18.50
2022-08-03T02:35:14.065Z,18.40
2022-08-03T02:37:56.083Z,18.50
2022-08-03T02:40:24.991Z,18.40
2022-08-03T02:42:55.621Z,18.40
2022-08-03T02:45:25.954Z,18.40
2022-08-03T02:47:58.472Z,18.40
2022-08-03T02:50:26.883Z,18.40
2022-08-03T02:52:57.076Z,18.40
2022-08-03T02:55:27.448Z,18.40
2022-08-03T02:57:56.109Z,18.30
2022-08-03T03:00:27.901Z,18.30
2022-08-03T03:03:00.314Z,18.40
2022-08-03T03:05:52.289Z,18.30
2022-08-03T03:08:18.571Z,18.30
2022-08-03T03:10:48.938Z,18.30
2022-08-03T03:13:23.151Z,18.20
2022-08-03T03:15:51.098Z,18.10
2022-08-03T03:18:22.217Z,18.10
2022-08-03T03:20:52.609Z,18.10
2022-08-03T03:23:25.005Z,18.00
2022-08-03T03:25:53.408Z,18.00
2022-08-03T03:28:20.894Z,18.00
2022-08-03T03:30:52.870Z,18.00
2022-08-03T03:33:21.801Z,18.00
2022-08-03T03:35:49.650Z,18.10
2022-08-03T03:38:16.728Z,18.00
2022-08-03T03:40:44.033Z,17.90
2022-08-03T03:43:12.227Z,17.90
2022-08-03T03:45:41.767Z,17.90
2022-08-03T03:48:09.123Z,17.90
2022-08-03T03:50:37.659Z,17.90
2022-08-03T03:53:09.301Z,17.90
2022-08-03T03:55:57.769Z,17.90
2022-08-03T03:58:27.278Z,18.00
2022-08-03T04:00:54.466Z,18.10
2022-08-03T04:03:21.599Z,18.10
2022-08-03T04:06:06.955Z,18.20
2022-08-03T04:08:52.661Z,18.30
2022-08-03T04:11:38.214Z,18.30
2022-08-03T04:14:27.147Z,18.40
2022-08-03T04:16:59.142Z,18.40
2022-08-03T04:19:47.755Z,18.40
2022-08-03T04:22:19.056Z,18.50
2022-08-03T04:24:55.988Z,18.50
2022-08-03T04:27:27.631Z,18.60
2022-08-03T04:29:56.982Z,18.70
2022-08-03T04:32:26.324Z,18.70
2022-08-03T04:34:53.725Z,18.80
2022-08-03T04:37:43.251Z,18.90
2022-08-03T04:40:14.639Z,19.00
2022-08-03T04:42:44.278Z,19.20
2022-08-03T04:45:13.444Z,19.20
2022-08-03T04:47:40.867Z,19.30
2022-08-03T04:50:12.534Z,19.30
2022-08-03T04:52:40.943Z,19.40
2022-08-03T04:55:08.358Z,19.50
2022-08-03T04:57:35.420Z,19.60
2022-08-03T05:00:03.733Z,19.70
2022-08-03T05:02:32.262Z,19.90
2022-08-03T05:05:00.819Z,20.00
2022-08-03T05:07:35.596Z,20.20
2022-08-03T05:10:09.156Z,20.20
2022-08-03T05:12:43.173Z,20.40
2022-08-03T05:15:12.458Z,20.50
2022-08-03T05:17:39.507Z,20.60
2022-08-03T05:20:06.977Z,20.80
2022-08-03T05:22:34.074Z,21.00
2022-08-03T05:25:02.048Z,21.10
2022-08-03T05:27:28.994Z,21.20
2022-08-03T05:29:56.078Z,21.20
2022-08-03T05:32:43.086Z,21.30
2022-08-03T05:35:57.187Z,21.60
2022-08-03T05:37:57.250Z,21.50
2022-08-03T05:40:24.900Z,21.30
2022-08-03T05:42:53.854Z,21.60
2022-08-03T05:45:23.264Z,21.90
2022-08-03T05:47:53.671Z,21.90
2022-08-03T05:50:21.551Z,21.90
2022-08-03T05:52:48.906Z,21.90
2022-08-03T05:55:16.791Z,22.00
2022-08-03T05:57:47.119Z,22.40
2022-08-03T06:00:16.618Z,22.60
2022-08-03T06:02:43.609Z,22.80
2022-08-03T06:05:10.867Z,22.80
2022-08-03T06:07:38.011Z,22.60
2022-08-03T06:10:37.096Z,22.70
2022-08-03T06:12:52.979Z,23.00
2022-08-03T06:15:20.968Z,23.20
2022-08-03T06:17:51.841Z,23.10
2022-08-03T06:20:21.098Z,23.30
2022-08-03T06:22:51.249Z,23.70
2022-08-03T06:25:27.722Z,23.60
2022-08-03T06:27:54.753Z,23.70
2022-08-03T06:30:21.958Z,24.00
2022-08-03T06:32:51.733Z,24.30
2022-08-03T06:35:20.058Z,24.40
2022-08-03T06:37:49.044Z,24.60
2022-08-03T06:40:29.757Z,24.90
2022-08-03T06:42:58.229Z,25.10
2022-08-03T06:45:25.479Z,25.40
2022-08-03T06:48:07.287Z,25.20
2022-08-03T06:50:36.941Z,25.00
2022-08-03T06:53:05.422Z,25.40
2022-08-03T06:55:33.058Z,25.40
2022-08-03T06:58:03.562Z,25.50
2022-08-03T07:00:31.180Z,25.50
2022-08-03T07:02:58.665Z,25.80
2022-08-03T07:05:25.850Z,25.90
2022-08-03T07:07:57.641Z,25.90
2022-08-03T07:10:25.208Z,26.20
2022-08-03T07:12:55.967Z,26.20
2022-08-03T07:15:53.847Z,26.30
2022-08-03T07:18:11.325Z,26.30
2022-08-03T07:20:38.305Z,26.60
2022-08-03T07:23:05.325Z,26.40
2022-08-03T07:25:32.354Z,26.30
2022-08-03T07:27:59.728Z,26.40
2022-08-03T07:30:27.040Z,26.40
2022-08-03T07:32:54.032Z,26.40
2022-08-03T07:35:24.704Z,26.70
2022-08-03T07:37:54.945Z,26.70
2022-08-03T07:40:22.892Z,26.80
2022-08-03T07:42:53.381Z,27.10
2022-08-03T07:45:23.358Z,27.40
2022-08-03T07:47:53.305Z,27.60
2022-08-03T07:50:20.975Z,27.50
2022-08-03T07:52:48.513Z,27.70
2022-08-03T07:55:16.306Z,27.90
2022-08-03T07:57:43.426Z,28.00
2022-08-03T08:00:19.214Z,27.90
2022-08-03T08:02:46.515Z,27.80
2022-08-03T08:05:13.746Z,27.80
2022-08-03T08:07:40.903Z,28.00
2022-08-03T08:10:10.201Z,27.90
2022-08-03T08:12:38.848Z,28.00
2022-08-03T08:15:06.795Z,28.10
2022-08-03T08:18:06.321Z,28.00
2022-08-03T08:20:38.119Z,28.00
2022-08-03T08:23:09.635Z,27.90
2022-08-03T08:25:54.600Z,28.00
2022-08-03T08:28:32.303Z,28.30
2022-08-03T08:31:00.571Z,28.70
2022-08-03T08:33:37.358Z,28.90
2022-08-03T08:36:13.394Z,29.10
2022-08-03T08:38:44.626Z,29.10
2022-08-03T08:41:13.157Z,29.30
2022-08-03T08:43:40.616Z,29.40
2022-08-03T08:46:11.982Z,29.40
2022-08-03T08:48:44.723Z,29.50
2022-08-03T08:51:13.405Z,29.20
2022-08-03T08:53:44.483Z,29.10
2022-08-03T08:56:17.692Z,29.50
2022-08-03T08:58:59.353Z,29.60
2022-08-03T09:01:27.107Z,29.20
2022-08-03T09:03:54.515Z,29.60
2022-08-03T09:06:24.671Z,29.70
2022-08-03T09:08:51.740Z,29.80
2022-08-03T09:11:51.732Z,29.90
2022-08-03T09:14:10.959Z,29.70
2022-08-03T09:17:00.906Z,29.80
2022-08-03T09:19:29.974Z,30.10
2022-08-03T09:22:12.714Z,30.20
2022-08-03T09:25:22.740Z,30.20
2022-08-03T09:27:47.642Z,30.20
2022-08-03T09:30:33.519Z,30.20
2022-08-03T09:33:06.656Z,30.40
2022-08-03T09:35:53.222Z,30.30
2022-08-03T09:38:24.253Z,30.20
2022-08-03T09:40:53.800Z,30.10
2022-08-03T09:43:25.971Z,30.10
2022-08-03T09:46:03.517Z,30.30
2022-08-03T09:48:31.780Z,30.40
2022-08-03T09:51:13.479Z,30.60
2022-08-03T09:53:59.503Z,30.30
2022-08-03T09:56:45.114Z,30.20
2022-08-03T09:59:13.733Z,30.40
2022-08-03T10:01:41.937Z,30.50
2022-08-03T10:04:19.647Z,30.60
2022-08-03T10:07:01.791Z,30.80
2022-08-03T10:09:28.801Z,30.90
2022-08-03T10:11:56.372Z,30.80
2022-08-03T10:14:23.730Z,31.00
2022-08-03T10:16:50.784Z,30.50
2022-08-03T10:19:18.221Z,30.70
2022-08-03T10:21:55.953Z,31.00
2022-08-03T10:24:29.580Z,31.20
2022-08-03T10:27:05.856Z,31.10
2022-08-03T10:29:38.871Z,31.10
2022-08-03T10:32:23.547Z,31.20
2022-08-03T10:34:52.320Z,31.00
2022-08-03T10:37:30.550Z,30.90
2022-08-03T10:40:00.120Z,30.90
2022-08-03T10:42:31.328Z,30.90
2022-08-03T10:45:04.179Z,30.90
2022-08-03T10:47:32.512Z,31.10
2022-08-03T10:50:00.271Z,31.30
2022-08-03T10:52:32.935Z,31.40
2022-08-03T10:55:41.634Z,31.40
2022-08-03T10:58:11.247Z,31.00
2022-08-03T11:00:50.525Z,31.30
2022-08-03T11:03:18.623Z,31.40
2022-08-03T11:05:49.067Z,31.60
2022-08-03T11:08:20.548Z,31.80
2022-08-03T11:10:48.850Z,31.80
2022-08-03T11:13:18.045Z,31.60
2022-08-03T11:15:47.356Z,31.30
2022-08-03T11:18:15.513Z,31.10
2022-08-03T11:20:59.733Z,31.40
2022-08-03T11:24:05.371Z,31.70
2022-08-03T11:26:29.159Z,32.10
2022-08-03T11:29:31.377Z,32.40
2022-08-03T11:31:58.519Z,32.50
2022-08-03T11:34:25.674Z,32.50
2022-08-03T11:37:30.132Z,32.50
2022-08-03T11:40:02.590Z,32.70
2022-08-03T11:42:35.655Z,32.30
2022-08-03T11:45:08.628Z,32.50
2022-08-03T11:47:50.668Z,32.40
2022-08-03T11:50:19.995Z,32.80
2022-08-03T11:52:48.136Z,33.50
2022-08-03T11:55:17.349Z,34.20
2022-08-03T11:58:58.357Z,35.20
2022-08-03T12:00:34.168Z,36.10
2022-08-03T12:03:13.771Z,37.20
2022-08-03T12:05:51.121Z,37.90
2022-08-03T12:08:28.660Z,38.60
2022-08-03T12:10:57.491Z,39.80
2022-08-03T12:13:56.634Z,41.90
2022-08-03T12:16:23.341Z,42.70
2022-08-03T12:18:58.832Z,44.00
2022-08-03T12:21:26.271Z,44.50
2022-08-03T12:24:13.585Z,44.10
2022-08-03T12:26:58.141Z,44.40
2022-08-03T12:29:27.208Z,43.30
2022-08-03T12:31:55.936Z,43.10
2022-08-03T12:34:23.541Z,43.00
2022-08-03T12:36:52.964Z,45.00
2022-08-03T12:39:24.984Z,46.90
2022-08-03T12:41:56.961Z,47.70
2022-08-03T12:44:35.094Z,47.80
2022-08-03T12:47:03.901Z,47.00
2022-08-03T12:49:48.673Z,46.60
2022-08-03T12:52:16.911Z,47.40
2022-08-03T12:54:53.933Z,46.60
2022-08-03T12:57:21.443Z,45.90
2022-08-03T12:59:52.862Z,47.00
2022-08-03T13:02:26.527Z,48.10
2022-08-03T13:04:54.733Z,48.20
2022-08-03T13:07:23.082Z,49.00
2022-08-03T13:09:55.824Z,48.20
2022-08-03T13:12:25.043Z,48.50
2022-08-03T13:14:58.287Z,48.90
2022-08-03T13:17:25.886Z,49.60
2022-08-03T13:19:53.586Z,49.90
2022-08-03T13:22:31.055Z,50.10
2022-08-03T13:24:58.279Z,48.90
2022-08-03T13:28:04.046Z,47.50
2022-08-03T13:30:13.553Z,47.50
2022-08-03T13:32:45.231Z,48.30
2022-08-03T13:35:12.302Z,49.40
2022-08-03T13:37:43.592Z,48.90
2022-08-03T13:40:16.360Z,47.70
2022-08-03T13:42:44.067Z,48.20
2022-08-03T13:45:11.542Z,48.40
2022-08-03T13:47:38.599Z,48.90
2022-08-03T13:50:05.882Z,48.40
2022-08-03T13:52:35.538Z,48.60
2022-08-03T13:55:07.238Z,48.10
2022-08-03T13:58:04.669Z,48.90
2022-08-03T14:00:28.968Z,48.90
2022-08-03T14:03:14.818Z,48.40
2022-08-03T14:05:44.115Z,48.60
2022-08-03T14:08:11.754Z,48.90
2022-08-03T14:10:42.804Z,48.70
2022-08-03T14:13:11.943Z,49.50
2022-08-03T14:15:38.981Z,49.30
2022-08-03T14:18:12.589Z,50.10
2022-08-03T14:20:50.305Z,50.60
2022-08-03T14:23:21.509Z,50.00
2022-08-03T14:25:51.460Z,50.20
2022-08-03T14:28:23.094Z,50.70
2022-08-03T14:30:54.240Z,50.70
2022-08-03T14:33:21.858Z,50.40
2022-08-03T14:35:55.029Z,50.70
2022-08-03T14:38:31.287Z,49.40
2022-08-03T14:40:58.408Z,48.90
2022-08-03T14:43:25.409Z,49.30
2022-08-03T14:46:00.926Z,48.90
2022-08-03T14:50:24.337Z,49.50
2022-08-03T14:51:15.011Z,49.80
2022-08-03T14:53:41.967Z,50.20
2022-08-03T14:56:10.698Z,50.20
2022-08-03T14:58:38.654Z,49.20
2022-08-03T15:02:04.540Z,47.90
2022-08-03T15:03:54.393Z,47.80
2022-08-03T15:06:21.492Z,47.80
2022-08-03T15:09:13.653Z,49.70
2022-08-03T15:11:37.076Z,49.00
2022-08-03T15:14:08.710Z,50.00
2022-08-03T15:16:36.567Z,49.70
2022-08-03T15:19:04.815Z,49.00
2022-08-03T15:21:50.971Z,49.30
2022-08-03T15:24:18.216Z,48.80
2022-08-03T15:26:45.365Z,48.90
2022-08-03T15:30:05.677Z,50.30
2022-08-03T15:32:00.742Z,49.50
2022-08-03T15:34:27.780Z,49.90
2022-08-03T15:36:54.774Z,49.70
2022-08-03T15:39:21.805Z,49.80
2022-08-03T15:41:48.952Z,50.10
2022-08-03T15:44:19.719Z,50.50
2022-08-03T15:46:47.615Z,49.70
2022-08-03T15:49:14.914Z,50.50
2022-08-03T15:51:41.990Z,50.60
2022-08-03T15:54:09.182Z,50.50
2022-08-03T15:56:36.186Z,49.00
2022-08-03T15:59:13.358Z,49.80
2022-08-03T16:01:41.383Z,49.70
2022-08-03T16:04:08.510Z,49.90
2022-08-03T16:06:36.576Z,50.60
2022-08-03T16:09:24.393Z,49.90
2022-08-03T16:11:53.250Z,49.10
2022-08-03T16:14:32.561Z,48.40
2022-08-03T16:17:05.145Z,48.10
2022-08-03T16:19:32.314Z,48.40
2022-08-03T16:22:00.852Z,47.90
2022-08-03T16:24:28.351Z,47.60
2022-08-03T16:26:56.132Z,47.90
2022-08-03T16:29:23.819Z,48.10
2022-08-03T16:31:52.141Z,48.20
2022-08-03T16:34:20.138Z,48.10
2022-08-03T16:36:47.170Z,46.00
2022-08-03T16:39:14.242Z,44.50
2022-08-03T16:41:54.226Z,44.80
2022-08-03T16:44:30.511Z,44.90
2022-08-03T16:46:58.647Z,46.40
2022-08-03T16:49:52.951Z,46.50
2022-08-03T16:52:13.432Z,46.00
2022-08-03T16:54:40.738Z,45.90
2022-08-03T16:57:08.627Z,45.60
2022-08-03T16:59:37.064Z,44.30
2022-08-03T17:02:09.983Z,42.50
2022-08-03T17:04:40.088Z,42.30
2022-08-03T17:07:08.737Z,42.30
2022-08-03T17:09:38.332Z,44.30
2022-08-03T17:12:07.233Z,45.20
2022-08-03T17:14:34.286Z,45.50
2022-08-03T17:17:04.893Z,46.00
2022-08-03T17:19:39.482Z,45.90
2022-08-03T17:22:17.644Z,45.80
2022-08-03T17:24:54.582Z,45.50
2022-08-03T17:28:50.362Z,45.50
2022-08-03T17:30:15.923Z,45.10
2022-08-03T17:32:56.587Z,44.70
2022-08-03T17:35:38.660Z,44.70
2022-08-03T17:38:11.933Z,44.40
2022-08-03T17:40:48.088Z,44.10
2022-08-03T17:43:44.510Z,44.00
2022-08-03T17:46:10.830Z,43.60
2022-08-03T17:48:41.237Z,43.50
2022-08-03T17:51:21.100Z,43.30
2022-08-03T17:54:27.501Z,42.50
2022-08-03T17:57:22.662Z,40.50
2022-08-03T18:00:33.357Z,39.00
2022-08-03T18:03:20.959Z,37.40
2022-08-03T18:08:54.541Z,35.80
2022-08-03T18:11:35.956Z,35.50
2022-08-03T18:14:20.641Z,35.00
2022-08-03T18:17:01.742Z,34.70
2022-08-03T18:20:03.367Z,34.40
2022-08-03T18:22:26.911Z,34.20
2022-08-03T18:24:55.842Z,33.90
2022-08-03T18:27:24.338Z,33.60
2022-08-03T18:30:12.320Z,33.30
2022-08-03T18:32:39.812Z,32.90
2022-08-03T18:35:13.847Z,32.70
2022-08-03T18:37:51.797Z,32.50
2022-08-03T18:40:21.863Z,32.10
2022-08-03T18:42:52.890Z,31.90
2022-08-03T18:45:57.717Z,31.40
2022-08-03T18:48:32.675Z,31.10
2022-08-03T18:51:06.704Z,30.80
2022-08-03T18:54:02.975Z,30.50
2022-08-03T18:56:51.595Z,30.10
2022-08-03T18:59:38.393Z,29.90
2022-08-03T19:02:19.471Z,29.70
2022-08-03T19:04:51.802Z,29.70
2022-08-03T19:07:24.825Z,29.60
2022-08-03T19:09:58.434Z,29.50
2022-08-03T19:12:39.496Z,29.40
2022-08-03T19:18:00.679Z,29.20
2022-08-03T19:20:34.881Z,28.90
2022-08-03T19:23:02.189Z,28.70
2022-08-03T19:25:35.011Z,28.70
2022-08-03T19:28:06.236Z,28.60
2022-08-03T19:33:56.050Z,28.50
2022-08-03T19:36:26.390Z,28.30
2022-08-03T19:38:55.771Z,28.30
2022-08-03T19:41:27.520Z,28.30
2022-08-03T19:44:06.982Z,28.20
2022-08-03T19:46:44.039Z,28.10
2022-08-03T19:49:16.103Z,28.10
2022-08-03T19:52:01.058Z,28.00
2022-08-03T19:54:52.989Z,27.90
2022-08-03T19:57:25.261Z,27.80
2022-08-03T19:59:56.831Z,27.60
2022-08-03T20:02:26.064Z,27.50
2022-08-03T20:04:59.824Z,27.50
2022-08-03T20:07:29.140Z,27.50
2022-08-03T20:09:59.628Z,27.40
2022-08-03T20:12:32.130Z,27.40
2022-08-03T20:15:04.327Z,27.30
2022-08-03T20:17:56.309Z,27.30
2022-08-03T20:20:24.769Z,27.20
2022-08-03T20:22:57.790Z,27.20
2022-08-03T20:25:37.648Z,27.00
2022-08-03T20:28:15.070Z,27.00
2022-08-03T20:30:47.152Z,26.90
2022-08-03T20:33:18.649Z,26.80
2022-08-03T20:35:49.215Z,26.70
2022-08-03T20:38:18.870Z,26.50
2022-08-03T20:40:47.315Z,26.40
2022-08-03T20:43:15.549Z,26.30
2022-08-03T20:45:59.478Z,26.30
2022-08-03T20:48:32.171Z,26.20
2022-08-03T20:50:59.452Z,26.20
2022-08-03T20:54:00.308Z,26.20
2022-08-03T20:56:15.761Z,26.20
2022-08-03T21:04:20.942Z,25.90
2022-08-03T21:06:58.269Z,25.90
2022-08-03T21:09:33.501Z,25.80
2022-08-03T21:12:11.896Z,25.80
2022-08-03T21:13:01.802Z,29.30
2022-08-03T21:13:02.401Z,28.50
2022-08-03T21:13:04.625Z,36.50
2022-08-03T21:13:07.896Z,26.00
2022-08-03T21:13:12.863Z,26.10
2022-08-03T21:14:51.918Z,25.80
2022-08-03T21:17:39.207Z,25.80
2022-08-03T21:20:09.482Z,25.70
2022-08-03T21:22:38.578Z,25.60
2022-08-03T21:25:09.231Z,25.60
2022-08-03T21:27:36.839Z,25.60
2022-08-03T21:30:10.529Z,25.60
2022-08-03T21:32:40.772Z,25.50
2022-08-03T21:35:12.532Z,25.40
2022-08-03T21:37:40.717Z,25.30
2022-08-03T21:40:09.302Z,25.30
2022-08-03T21:42:36.340Z,25.30
2022-08-03T21:45:13.923Z,25.30
2022-08-03T21:47:44.118Z,25.30
2022-08-03T21:50:12.993Z,25.20
2022-08-03T21:52:47.747Z,25.10
2022-08-03T21:55:18.596Z,25.10
2022-08-03T21:57:53.039Z,25.10
2022-08-03T22:00:21.874Z,25.10
2022-08-03T22:02:53.200Z,25.00
2022-08-03T22:05:28.990Z,25.00
2022-08-03T22:08:12.531Z,24.90
2022-08-03T22:10:40.454Z,24.90
2022-08-03T22:13:07.594Z,24.80
2022-08-03T22:15:34.690Z,24.70
2022-08-03T22:18:04.719Z,24.60
2022-08-03T22:20:31.928Z,24.50
2022-08-03T22:23:02.356Z,24.50
2022-08-03T22:25:31.403Z,24.50
2022-08-03T22:28:01.036Z,24.40
2022-08-03T22:30:28.665Z,24.30
2022-08-03T22:32:56.656Z,24.30
2022-08-03T22:35:25.850Z,24.20
2022-08-03T22:37:57.791Z,24.20
2022-08-03T22:40:26.077Z,24.20
2022-08-03T22:42:54.473Z,24.20
2022-08-03T22:46:05.930Z,24.20
2022-08-03T22:48:08.651Z,24.20
2022-08-03T22:50:35.865Z,24.10
2022-08-03T22:53:03.626Z,24.00
2022-08-03T22:55:31.056Z,23.90
2022-08-03T22:57:58.167Z,23.80
2022-08-03T23:00:25.329Z,23.80
2022-08-03T23:02:55.332Z,23.80
2022-08-03T23:06:01.943Z,23.70
2022-08-03T23:08:18.629Z,23.60
2022-08-03T23:10:47.520Z,23.60
2022-08-03T23:13:17.847Z,23.50
2022-08-03T23:15:54.587Z,23.50
2022-08-03T23:18:23.100Z,23.50
2022-08-03T23:20:54.101Z,23.40
2022-08-03T23:23:23.328Z,23.40
2022-08-03T23:25:51.495Z,23.30
2022-08-03T23:28:19.143Z,23.30
2022-08-03T23:30:47.451Z,23.30
2022-08-03T23:33:16.589Z,23.30
2022-08-03T23:36:22.619Z,23.20
2022-08-03T23:38:49.299Z,23.20
2022-08-03T23:41:18.667Z,23.20
2022-08-03T23:43:51.807Z,23.20
2022-08-03T23:46:22.288Z,23.10
2022-08-03T23:48:50.824Z,23.00
2022-08-03T23:51:29.545Z,22.90
2022-08-03T23:54:14.923Z,22.80
2022-08-03T23:57:36.937Z,22.80
